sensor_id;sensor_type;location;lat;lon;timestamp;pressure;altitude;pressure_sealevel;temperature;humidity
71344;BME280;59146;43.850;25.948;2024-02-21T00:00:14;101933.69;;;5.38;94.39
71344;BME280;59146;43.850;25.948;2024-02-21T00:02:40;101913.88;;;5.36;94.12
71344;BME280;59146;43.850;25.948;2024-02-21T00:05:05;101879.66;;;5.17;94.25
71344;BME280;59146;43.850;25.948;2024-02-21T00:07:31;101913.22;;;5.23;93.70
71344;BME280;59146;43.850;25.948;2024-02-21T00:09:56;101903.81;;;5.18;93.85
71344;BME280;59146;43.850;25.948;2024-02-21T00:12:22;101815.06;;;4.56;93.33
71344;BME280;59146;43.850;25.948;2024-02-21T00:14:47;101927.75;;;5.33;94.10
71344;BME280;59146;43.850;25.948;2024-02-21T00:17:13;101904.53;;;5.26;93.66
71344;BME280;59146;43.850;25.948;2024-02-21T00:19:38;101860.88;;;5.03;93.69
71344;BME280;59146;43.850;25.948;2024-02-21T00:22:04;101898.41;;;5.31;93.39
71344;BME280;59146;43.850;25.948;2024-02-21T00:24:29;101703.56;;;4.17;93.68
71344;BME280;59146;43.850;25.948;2024-02-21T00:26:55;101909.44;;;5.44;93.41
71344;BME280;59146;43.850;25.948;2024-02-21T00:29:20;101897.50;;;5.32;93.70
71344;BME280;59146;43.850;25.948;2024-02-21T00:31:48;101894.78;;;5.41;93.65
71344;BME280;59146;43.850;25.948;2024-02-21T00:34:14;101891.09;;;5.53;93.46
71344;BME280;59146;43.850;25.948;2024-02-21T00:36:39;101892.50;;;5.71;91.96
71344;BME280;59146;43.850;25.948;2024-02-21T00:39:05;101868.03;;;5.39;91.37
71344;BME280;59146;43.850;25.948;2024-02-21T00:41:31;101909.00;;;5.67;92.29
71344;BME280;59146;43.850;25.948;2024-02-21T00:43:57;101907.00;;;5.84;92.04
71344;BME280;59146;43.850;25.948;2024-02-21T00:46:22;101868.19;;;5.78;90.56
71344;BME280;59146;43.850;25.948;2024-02-21T00:48:48;101904.50;;;5.78;90.92
71344;BME280;59146;43.850;25.948;2024-02-21T00:51:15;101819.78;;;5.32;91.44
71344;BME280;59146;43.850;25.948;2024-02-21T00:53:41;101834.94;;;5.53;91.04
71344;BME280;59146;43.850;25.948;2024-02-21T00:56:07;101876.00;;;5.75;90.38
71344;BME280;59146;43.850;25.948;2024-02-21T00:58:32;101825.78;;;5.36;90.45
71344;BME280;59146;43.850;25.948;2024-02-21T01:00:58;101829.44;;;5.24;91.10
71344;BME280;59146;43.850;25.948;2024-02-21T01:03:23;101872.72;;;5.67;91.04
71344;BME280;59146;43.850;25.948;2024-02-21T01:05:49;101899.16;;;5.87;90.11
71344;BME280;59146;43.850;25.948;2024-02-21T01:08:14;101871.53;;;5.83;89.05
71344;BME280;59146;43.850;25.948;2024-02-21T01:10:39;101902.03;;;5.72;89.41
71344;BME280;59146;43.850;25.948;2024-02-21T01:13:05;101864.66;;;5.34;90.09
71344;BME280;59146;43.850;25.948;2024-02-21T01:15:31;101914.72;;;5.38;90.64
71344;BME280;59146;43.850;25.948;2024-02-21T01:17:57;101896.03;;;5.19;91.14
71344;BME280;59146;43.850;25.948;2024-02-21T01:20:22;101881.38;;;5.17;91.05
71344;BME280;59146;43.850;25.948;2024-02-21T01:22:48;101835.25;;;4.87;91.05
71344;BME280;59146;43.850;25.948;2024-02-21T01:25:13;101881.47;;;5.12;91.69
71344;BME280;59146;43.850;25.948;2024-02-21T01:27:38;101847.38;;;4.84;92.42
71344;BME280;59146;43.850;25.948;2024-02-21T01:30:05;101884.19;;;5.03;92.76
71344;BME280;59146;43.850;25.948;2024-02-21T01:32:31;101808.91;;;4.62;92.75
71344;BME280;59146;43.850;25.948;2024-02-21T01:34:56;101887.50;;;5.11;92.63
71344;BME280;59146;43.850;25.948;2024-02-21T01:37:21;101875.50;;;5.07;92.73
71344;BME280;59146;43.850;25.948;2024-02-21T01:39:47;101876.25;;;5.14;92.46
71344;BME280;59146;43.850;25.948;2024-02-21T01:42:14;101820.44;;;4.96;92.00
71344;BME280;59146;43.850;25.948;2024-02-21T01:44:40;101842.75;;;5.03;92.31
71344;BME280;59146;43.850;25.948;2024-02-21T01:47:05;101824.56;;;5.08;91.63
71344;BME280;59146;43.850;25.948;2024-02-21T01:49:31;101857.09;;;5.22;91.94
71344;BME280;59146;43.850;25.948;2024-02-21T01:51:56;101757.94;;;4.65;92.26
71344;BME280;59146;43.850;25.948;2024-02-21T01:54:22;101834.88;;;5.09;92.08
71344;BME280;59146;43.850;25.948;2024-02-21T01:56:48;101818.50;;;5.09;91.96
71344;BME280;59146;43.850;25.948;2024-02-21T01:59:15;101853.63;;;5.25;91.99
71344;BME280;59146;43.850;25.948;2024-02-21T02:01:42;101814.25;;;5.05;92.49
71344;BME280;59146;43.850;25.948;2024-02-21T02:04:08;101795.38;;;4.98;92.15
71344;BME280;59146;43.850;25.948;2024-02-21T02:06:34;101848.44;;;5.25;92.59
71344;BME280;59146;43.850;25.948;2024-02-21T02:09:00;101748.44;;;4.67;92.76
71344;BME280;59146;43.850;25.948;2024-02-21T02:11:25;101810.91;;;4.98;92.33
71344;BME280;59146;43.850;25.948;2024-02-21T02:13:51;101774.16;;;4.76;92.88
71344;BME280;59146;43.850;25.948;2024-02-21T02:16:16;101858.03;;;5.18;93.02
71344;BME280;59146;43.850;25.948;2024-02-21T02:18:42;101835.78;;;5.08;92.53
71344;BME280;59146;43.850;25.948;2024-02-21T02:21:15;101858.28;;;5.03;92.74
71344;BME280;59146;43.850;25.948;2024-02-21T02:23:47;101844.56;;;5.00;92.90
71344;BME280;59146;43.850;25.948;2024-02-21T02:26:12;101806.00;;;4.83;93.33
71344;BME280;59146;43.850;25.948;2024-02-21T02:28:38;101834.00;;;5.10;92.10
71344;BME280;59146;43.850;25.948;2024-02-21T02:31:03;101834.25;;;4.95;91.86
71344;BME280;59146;43.850;25.948;2024-02-21T02:33:28;101849.47;;;5.15;92.17
71344;BME280;59146;43.850;25.948;2024-02-21T02:35:54;101857.94;;;5.24;91.46
71344;BME280;59146;43.850;25.948;2024-02-21T02:38:19;101836.53;;;5.13;89.82
71344;BME280;59146;43.850;25.948;2024-02-21T02:40:45;101872.06;;;5.05;90.37
71344;BME280;59146;43.850;25.948;2024-02-21T02:43:10;101815.97;;;4.51;91.60
71344;BME280;59146;43.850;25.948;2024-02-21T02:45:36;101783.38;;;4.41;92.47
71344;BME280;59146;43.850;25.948;2024-02-21T02:48:02;101719.09;;;4.15;91.58
71344;BME280;59146;43.850;25.948;2024-02-21T02:50:27;101868.81;;;4.94;90.81
71344;BME280;59146;43.850;25.948;2024-02-21T02:52:54;101786.88;;;4.37;91.34
71344;BME280;59146;43.850;25.948;2024-02-21T02:55:20;101759.00;;;3.97;92.63
71344;BME280;59146;43.850;25.948;2024-02-21T02:57:45;101862.44;;;4.60;92.77
71344;BME280;59146;43.850;25.948;2024-02-21T03:00:12;101867.47;;;4.69;92.50
71344;BME280;59146;43.850;25.948;2024-02-21T03:02:43;101800.97;;;4.16;92.94
71344;BME280;59146;43.850;25.948;2024-02-21T03:07:38;101777.03;;;4.03;93.93
71344;BME280;59146;43.850;25.948;2024-02-21T03:10:04;101828.94;;;4.49;93.23
71344;BME280;59146;43.850;25.948;2024-02-21T03:12:30;101871.00;;;4.65;92.51
71344;BME280;59146;43.850;25.948;2024-02-21T03:14:55;101845.34;;;4.50;93.18
71344;BME280;59146;43.850;25.948;2024-02-21T03:17:21;101733.56;;;3.67;94.24
71344;BME280;59146;43.850;25.948;2024-02-21T03:19:46;101850.56;;;4.45;94.81
71344;BME280;59146;43.850;25.948;2024-02-21T03:22:13;101820.41;;;4.43;94.75
71344;BME280;59146;43.850;25.948;2024-02-21T03:24:39;101782.94;;;4.12;94.14
71344;BME280;59146;43.850;25.948;2024-02-21T03:27:04;101851.38;;;4.49;94.63
71344;BME280;59146;43.850;25.948;2024-02-21T03:29:30;101764.03;;;4.08;94.81
71344;BME280;59146;43.850;25.948;2024-02-21T03:31:55;101808.44;;;4.36;94.41
71344;BME280;59146;43.850;25.948;2024-02-21T03:34:20;101863.25;;;4.65;93.85
71344;BME280;59146;43.850;25.948;2024-02-21T03:36:46;101855.53;;;4.59;93.87
71344;BME280;59146;43.850;25.948;2024-02-21T03:39:11;101842.00;;;4.42;94.33
71344;BME280;59146;43.850;25.948;2024-02-21T03:41:37;101850.38;;;4.57;93.92
71344;BME280;59146;43.850;25.948;2024-02-21T03:44:02;101865.88;;;4.59;94.17
71344;BME280;59146;43.850;25.948;2024-02-21T03:46:28;101871.00;;;4.65;95.38
71344;BME280;59146;43.850;25.948;2024-02-21T03:48:53;101786.22;;;4.21;95.17
71344;BME280;59146;43.850;25.948;2024-02-21T03:51:19;101842.66;;;4.56;95.07
71344;BME280;59146;43.850;25.948;2024-02-21T03:53:44;101800.84;;;4.25;95.49
71344;BME280;59146;43.850;25.948;2024-02-21T03:56:09;101796.56;;;4.24;95.56
71344;BME280;59146;43.850;25.948;2024-02-21T03:58:35;101795.63;;;4.28;95.42
71344;BME280;59146;43.850;25.948;2024-02-21T04:01:01;101807.50;;;4.41;95.33
71344;BME280;59146;43.850;25.948;2024-02-21T04:03:27;101877.75;;;4.73;95.18
71344;BME280;59146;43.850;25.948;2024-02-21T04:05:52;101851.22;;;4.59;95.53
71344;BME280;59146;43.850;25.948;2024-02-21T04:08:18;101783.56;;;4.29;95.43
71344;BME280;59146;43.850;25.948;2024-02-21T04:10:43;101856.03;;;4.83;95.23
71344;BME280;59146;43.850;25.948;2024-02-21T04:13:09;101865.53;;;4.83;94.66
71344;BME280;59146;43.850;25.948;2024-02-21T04:15:34;101799.00;;;4.32;94.95
71344;BME280;59146;43.850;25.948;2024-02-21T04:18:00;101830.72;;;4.47;95.95
71344;BME280;59146;43.850;25.948;2024-02-21T04:20:26;101811.66;;;4.51;95.86
71344;BME280;59146;43.850;25.948;2024-02-21T04:22:51;101764.47;;;4.36;95.00
71344;BME280;59146;43.850;25.948;2024-02-21T04:25:17;101834.66;;;4.71;95.16
71344;BME280;59146;43.850;25.948;2024-02-21T04:27:42;101790.34;;;4.36;95.81
71344;BME280;59146;43.850;25.948;2024-02-21T04:30:08;101795.34;;;4.46;96.50
71344;BME280;59146;43.850;25.948;2024-02-21T04:32:35;101850.09;;;4.77;95.60
71344;BME280;59146;43.850;25.948;2024-02-21T04:35:01;101831.06;;;4.81;94.51
71344;BME280;59146;43.850;25.948;2024-02-21T04:37:26;101857.81;;;4.80;94.73
71344;BME280;59146;43.850;25.948;2024-02-21T04:39:52;101879.50;;;4.73;95.65
71344;BME280;59146;43.850;25.948;2024-02-21T04:42:17;101810.00;;;4.47;95.77
71344;BME280;59146;43.850;25.948;2024-02-21T04:44:43;101881.84;;;4.90;94.92
71344;BME280;59146;43.850;25.948;2024-02-21T04:47:08;101810.13;;;4.38;95.05
71344;BME280;59146;43.850;25.948;2024-02-21T04:49:34;101882.19;;;4.65;95.61
71344;BME280;59146;43.850;25.948;2024-02-21T04:52:00;101891.59;;;4.72;95.55
71344;BME280;59146;43.850;25.948;2024-02-21T04:54:25;101870.91;;;4.71;95.73
71344;BME280;59146;43.850;25.948;2024-02-21T04:56:51;101864.84;;;4.72;94.89
71344;BME280;59146;43.850;25.948;2024-02-21T04:59:17;101870.94;;;4.68;95.64
71344;BME280;59146;43.850;25.948;2024-02-21T05:01:43;101876.25;;;4.59;96.32
71344;BME280;59146;43.850;25.948;2024-02-21T05:04:08;101830.81;;;4.38;96.86
71344;BME280;59146;43.850;25.948;2024-02-21T05:06:40;101871.75;;;4.73;96.10
71344;BME280;59146;43.850;25.948;2024-02-21T05:09:07;101879.44;;;4.77;95.01
71344;BME280;59146;43.850;25.948;2024-02-21T05:11:34;101777.84;;;4.06;95.56
71344;BME280;59146;43.850;25.948;2024-02-21T05:13:59;101855.63;;;4.53;96.08
71344;BME280;59146;43.850;25.948;2024-02-21T05:16:24;101871.72;;;4.74;96.00
71344;BME280;59146;43.850;25.948;2024-02-21T05:18:50;101827.25;;;4.47;95.75
71344;BME280;59146;43.850;25.948;2024-02-21T05:21:15;101908.69;;;4.82;95.96
71344;BME280;59146;43.850;25.948;2024-02-21T05:23:41;101898.47;;;4.72;96.77
71344;BME280;59146;43.850;25.948;2024-02-21T05:26:06;101896.72;;;4.74;97.00
71344;BME280;59146;43.850;25.948;2024-02-21T05:28:32;101833.31;;;4.46;96.93
71344;BME280;59146;43.850;25.948;2024-02-21T05:30:57;101843.41;;;4.64;96.09
71344;BME280;59146;43.850;25.948;2024-02-21T05:33:23;101860.44;;;4.77;96.21
71344;BME280;59146;43.850;25.948;2024-02-21T05:35:49;101885.38;;;4.82;96.81
71344;BME280;59146;43.850;25.948;2024-02-21T05:38:14;101833.16;;;4.55;96.77
71344;BME280;59146;43.850;25.948;2024-02-21T05:40:40;101838.97;;;4.70;96.30
71344;BME280;59146;43.850;25.948;2024-02-21T05:43:07;101871.44;;;4.91;96.61
71344;BME280;59146;43.850;25.948;2024-02-21T05:45:33;101902.16;;;5.14;96.75
71344;BME280;59146;43.850;25.948;2024-02-21T05:47:58;101870.59;;;4.92;97.41
71344;BME280;59146;43.850;25.948;2024-02-21T05:50:23;101854.19;;;4.92;97.11
71344;BME280;59146;43.850;25.948;2024-02-21T05:52:54;101913.00;;;5.37;97.10
71344;BME280;59146;43.850;25.948;2024-02-21T05:55:19;101882.03;;;5.28;95.67
71344;BME280;59146;43.850;25.948;2024-02-21T05:57:45;101902.69;;;5.32;95.24
71344;BME280;59146;43.850;25.948;2024-02-21T06:00:10;101867.69;;;5.10;96.10
71344;BME280;59146;43.850;25.948;2024-02-21T06:02:36;101930.91;;;5.50;95.31
71344;BME280;59146;43.850;25.948;2024-02-21T06:05:01;101832.41;;;5.03;94.39
71344;BME280;59146;43.850;25.948;2024-02-21T06:07:27;101942.03;;;5.55;93.98
71344;BME280;59146;43.850;25.948;2024-02-21T06:09:52;101944.69;;;5.51;93.67
71344;BME280;59146;43.850;25.948;2024-02-21T06:12:18;101943.44;;;5.24;94.71
71344;BME280;59146;43.850;25.948;2024-02-21T06:14:43;101931.78;;;5.49;94.87
71344;BME280;59146;43.850;25.948;2024-02-21T06:17:09;101937.06;;;5.43;94.18
71344;BME280;59146;43.850;25.948;2024-02-21T06:19:34;101926.84;;;5.34;94.69
71344;BME280;59146;43.850;25.948;2024-02-21T06:22:00;101955.81;;;5.57;94.70
71344;BME280;59146;43.850;25.948;2024-02-21T06:24:25;101950.38;;;5.73;94.12
71344;BME280;59146;43.850;25.948;2024-02-21T06:26:51;101978.91;;;5.73;93.92
71344;BME280;59146;43.850;25.948;2024-02-21T06:29:16;101907.81;;;5.37;93.52
71344;BME280;59146;43.850;25.948;2024-02-21T06:31:42;101986.94;;;5.59;95.14
71344;BME280;59146;43.850;25.948;2024-02-21T06:34:07;101977.41;;;5.58;96.32
71344;BME280;59146;43.850;25.948;2024-02-21T06:36:33;101980.81;;;5.63;95.59
71344;BME280;59146;43.850;25.948;2024-02-21T06:38:58;101944.97;;;5.36;94.75
71344;BME280;59146;43.850;25.948;2024-02-21T06:41:24;101954.41;;;5.38;95.04
71344;BME280;59146;43.850;25.948;2024-02-21T06:43:50;101989.91;;;5.35;96.10
71344;BME280;59146;43.850;25.948;2024-02-21T06:46:29;101999.22;;;5.45;96.55
71344;BME280;59146;43.850;25.948;2024-02-21T06:48:55;101998.41;;;5.44;96.39
71344;BME280;59146;43.850;25.948;2024-02-21T06:51:23;101995.53;;;5.59;96.15
71344;BME280;59146;43.850;25.948;2024-02-21T06:53:50;101983.69;;;5.45;96.47
71344;BME280;59146;43.850;25.948;2024-02-21T06:56:15;101973.81;;;5.67;95.82
71344;BME280;59146;43.850;25.948;2024-02-21T06:58:41;101978.22;;;5.61;96.54
71344;BME280;59146;43.850;25.948;2024-02-21T07:01:07;101977.28;;;5.65;97.16
71344;BME280;59146;43.850;25.948;2024-02-21T07:03:33;101920.06;;;5.26;96.71
71344;BME280;59146;43.850;25.948;2024-02-21T07:05:58;101946.84;;;5.77;95.66
71344;BME280;59146;43.850;25.948;2024-02-21T07:08:24;101883.13;;;5.63;94.37
71344;BME280;59146;43.850;25.948;2024-02-21T07:10:49;101896.88;;;5.69;94.20
71344;BME280;59146;43.850;25.948;2024-02-21T07:13:14;101870.66;;;5.38;94.85
71344;BME280;59146;43.850;25.948;2024-02-21T07:15:41;101959.34;;;6.04;95.34
71344;BME280;59146;43.850;25.948;2024-02-21T07:18:07;101966.88;;;6.16;95.09
71344;BME280;59146;43.850;25.948;2024-02-21T07:20:32;101980.47;;;6.30;94.66
71344;BME280;59146;43.850;25.948;2024-02-21T07:23:03;101906.72;;;5.99;93.10
71344;BME280;59146;43.850;25.948;2024-02-21T07:25:28;101967.69;;;6.19;94.46
71344;BME280;59146;43.850;25.948;2024-02-21T07:27:54;101910.19;;;5.98;93.94
71344;BME280;59146;43.850;25.948;2024-02-21T07:30:19;101983.81;;;6.35;94.65
71344;BME280;59146;43.850;25.948;2024-02-21T07:32:45;101916.25;;;5.97;94.23
71344;BME280;59146;43.850;25.948;2024-02-21T07:35:10;101920.75;;;5.87;94.90
71344;BME280;59146;43.850;25.948;2024-02-21T07:37:37;101988.28;;;6.27;95.57
71344;BME280;59146;43.850;25.948;2024-02-21T07:40:11;101982.94;;;6.36;94.65
71344;BME280;59146;43.850;25.948;2024-02-21T07:42:37;101982.84;;;6.40;94.12
71344;BME280;59146;43.850;25.948;2024-02-21T07:45:03;101984.44;;;6.46;93.98
71344;BME280;59146;43.850;25.948;2024-02-21T07:47:29;101982.03;;;6.37;94.63
71344;BME280;59146;43.850;25.948;2024-02-21T07:49:54;101971.78;;;6.31;94.76
71344;BME280;59146;43.850;25.948;2024-02-21T07:52:20;101969.69;;;6.48;95.26
71344;BME280;59146;43.850;25.948;2024-02-21T07:54:45;101969.44;;;6.60;93.95
71344;BME280;59146;43.850;25.948;2024-02-21T07:57:11;101985.56;;;6.76;93.88
71344;BME280;59146;43.850;25.948;2024-02-21T07:59:37;101962.78;;;6.88;93.62
71344;BME280;59146;43.850;25.948;2024-02-21T08:02:03;101974.66;;;6.98;92.58
71344;BME280;59146;43.850;25.948;2024-02-21T08:04:32;101959.03;;;7.01;91.54
71344;BME280;59146;43.850;25.948;2024-02-21T08:06:57;101982.69;;;7.26;90.82
71344;BME280;59146;43.850;25.948;2024-02-21T08:09:26;101929.44;;;7.07;90.37
71344;BME280;59146;43.850;25.948;2024-02-21T08:11:53;101924.13;;;7.11;89.41
71344;BME280;59146;43.850;25.948;2024-02-21T08:14:19;101977.44;;;7.28;89.84
71344;BME280;59146;43.850;25.948;2024-02-21T08:16:45;101956.03;;;7.16;90.79
71344;BME280;59146;43.850;25.948;2024-02-21T08:19:11;101987.94;;;7.60;90.29
71344;BME280;59146;43.850;25.948;2024-02-21T08:21:36;101971.13;;;7.73;88.24
71344;BME280;59146;43.850;25.948;2024-02-21T08:24:02;101982.19;;;7.81;87.99
71344;BME280;59146;43.850;25.948;2024-02-21T08:26:30;101958.50;;;7.58;88.69
71344;BME280;59146;43.850;25.948;2024-02-21T08:28:57;101987.28;;;7.84;87.95
71344;BME280;59146;43.850;25.948;2024-02-21T08:31:26;101958.72;;;7.82;87.37
71344;BME280;59146;43.850;25.948;2024-02-21T08:34:02;101902.81;;;7.66;86.47
71344;BME280;59146;43.850;25.948;2024-02-21T08:36:29;101982.84;;;8.20;86.87
71344;BME280;59146;43.850;25.948;2024-02-21T08:38:56;101977.81;;;8.46;85.14
71344;BME280;59146;43.850;25.948;2024-02-21T08:41:25;101978.84;;;8.40;85.22
71344;BME280;59146;43.850;25.948;2024-02-21T08:43:54;101985.66;;;8.44;84.64
71344;BME280;59146;43.850;25.948;2024-02-21T08:46:20;101949.31;;;8.41;84.12
71344;BME280;59146;43.850;25.948;2024-02-21T08:48:46;101928.72;;;8.32;83.29
71344;BME280;59146;43.850;25.948;2024-02-21T08:51:13;101944.69;;;8.20;84.98
71344;BME280;59146;43.850;25.948;2024-02-21T08:53:39;101933.19;;;8.58;83.24
71344;BME280;59146;43.850;25.948;2024-02-21T08:56:05;101985.47;;;8.81;83.00
71344;BME280;59146;43.850;25.948;2024-02-21T08:58:33;101972.50;;;8.79;82.85
71344;BME280;59146;43.850;25.948;2024-02-21T09:00:58;101971.13;;;8.66;83.18
71344;BME280;59146;43.850;25.948;2024-02-21T09:03:24;101988.63;;;8.61;84.25
71344;BME280;59146;43.850;25.948;2024-02-21T09:05:50;101971.31;;;8.60;84.36
71344;BME280;59146;43.850;25.948;2024-02-21T09:08:18;101968.53;;;8.66;83.90
71344;BME280;59146;43.850;25.948;2024-02-21T09:10:44;101973.88;;;8.62;84.54
71344;BME280;59146;43.850;25.948;2024-02-21T09:13:10;101972.81;;;8.69;84.07
71344;BME280;59146;43.850;25.948;2024-02-21T09:15:38;101928.13;;;8.53;83.52
71344;BME280;59146;43.850;25.948;2024-02-21T09:18:04;101977.16;;;8.68;84.58
71344;BME280;59146;43.850;25.948;2024-02-21T09:20:30;101988.63;;;8.91;84.12
71344;BME280;59146;43.850;25.948;2024-02-21T09:23:04;101995.69;;;8.87;84.11
71344;BME280;59146;43.850;25.948;2024-02-21T09:25:30;101959.00;;;8.65;84.89
71344;BME280;59146;43.850;25.948;2024-02-21T09:27:57;101989.09;;;8.75;85.23
71344;BME280;59146;43.850;25.948;2024-02-21T09:30:23;101990.38;;;8.61;86.61
71344;BME280;59146;43.850;25.948;2024-02-21T09:32:49;101994.72;;;8.62;86.55
71344;BME280;59146;43.850;25.948;2024-02-21T09:35:15;101994.94;;;8.84;85.90
71344;BME280;59146;43.850;25.948;2024-02-21T09:37:41;101948.75;;;8.59;84.74
71344;BME280;59146;43.850;25.948;2024-02-21T09:40:06;101995.94;;;8.79;84.46
71344;BME280;59146;43.850;25.948;2024-02-21T09:42:38;101997.97;;;8.98;84.70
71344;BME280;59146;43.850;25.948;2024-02-21T09:45:09;101997.38;;;8.88;84.41
71344;BME280;59146;43.850;25.948;2024-02-21T09:50:06;101977.09;;;8.41;85.97
71344;BME280;59146;43.850;25.948;2024-02-21T09:52:32;101993.78;;;8.64;86.52
71344;BME280;59146;43.850;25.948;2024-02-21T09:55:01;101972.56;;;8.47;85.64
71344;BME280;59146;43.850;25.948;2024-02-21T09:57:26;101930.47;;;8.32;85.86
71344;BME280;59146;43.850;25.948;2024-02-21T09:59:55;101978.13;;;8.94;84.51
71344;BME280;59146;43.850;25.948;2024-02-21T10:02:21;101982.53;;;8.92;84.07
71344;BME280;59146;43.850;25.948;2024-02-21T10:04:47;101974.84;;;8.87;84.61
71344;BME280;59146;43.850;25.948;2024-02-21T10:07:12;101937.84;;;8.76;83.96
71344;BME280;59146;43.850;25.948;2024-02-21T10:09:38;101964.81;;;9.03;84.69
71344;BME280;59146;43.850;25.948;2024-02-21T10:12:12;101975.38;;;8.98;83.56
71344;BME280;59146;43.850;25.948;2024-02-21T10:14:38;101968.31;;;9.02;83.53
71344;BME280;59146;43.850;25.948;2024-02-21T10:17:04;101966.19;;;9.14;83.01
71344;BME280;59146;43.850;25.948;2024-02-21T10:19:34;101938.44;;;9.12;82.11
71344;BME280;59146;43.850;25.948;2024-02-21T10:22:05;101902.41;;;8.98;82.52
71344;BME280;59146;43.850;25.948;2024-02-21T10:24:33;101958.53;;;9.36;81.80
71344;BME280;59146;43.850;25.948;2024-02-21T10:27:02;101948.84;;;9.39;81.81
71344;BME280;59146;43.850;25.948;2024-02-21T10:29:32;101947.69;;;9.22;81.99
71344;BME280;59146;43.850;25.948;2024-02-21T10:32:08;101939.38;;;9.37;82.57
71344;BME280;59146;43.850;25.948;2024-02-21T10:34:35;101932.91;;;9.73;80.76
71344;BME280;59146;43.850;25.948;2024-02-21T10:37:08;101877.94;;;9.53;79.30
71344;BME280;59146;43.850;25.948;2024-02-21T10:39:35;101902.78;;;9.40;80.68
71344;BME280;59146;43.850;25.948;2024-02-21T10:42:02;101918.06;;;9.75;80.34
71344;BME280;59146;43.850;25.948;2024-02-21T10:44:34;101868.78;;;9.68;78.94
71344;BME280;59146;43.850;25.948;2024-02-21T10:47:04;101908.56;;;9.73;78.58
71344;BME280;59146;43.850;25.948;2024-02-21T10:49:38;101912.91;;;9.74;79.37
71344;BME280;59146;43.850;25.948;2024-02-21T10:52:15;101858.38;;;9.66;79.06
71344;BME280;59146;43.850;25.948;2024-02-21T10:54:51;101906.34;;;10.10;78.49
71344;BME280;59146;43.850;25.948;2024-02-21T10:57:19;101882.28;;;10.02;78.28
71344;BME280;59146;43.850;25.948;2024-02-21T10:59:48;101867.03;;;9.91;78.31
71344;BME280;59146;43.850;25.948;2024-02-21T11:02:15;101872.22;;;9.93;78.44
71344;BME280;59146;43.850;25.948;2024-02-21T11:04:41;101897.22;;;10.23;77.84
71344;BME280;59146;43.850;25.948;2024-02-21T11:07:08;101755.13;;;9.36;78.08
71344;BME280;59146;43.850;25.948;2024-02-21T11:09:34;101854.66;;;9.96;77.44
71344;BME280;59146;43.850;25.948;2024-02-21T11:12:04;101824.28;;;9.71;78.49
71344;BME280;59146;43.850;25.948;2024-02-21T11:14:30;101802.69;;;9.67;78.89
71344;BME280;59146;43.850;25.948;2024-02-21T11:17:18;101858.19;;;10.18;77.92
71344;BME280;59146;43.850;25.948;2024-02-21T11:19:44;101838.66;;;9.82;79.75
71344;BME280;59146;43.850;25.948;2024-02-21T11:22:19;101865.00;;;10.22;79.21
71344;BME280;59146;43.850;25.948;2024-02-21T11:24:48;101865.00;;;10.46;77.66
71344;BME280;59146;43.850;25.948;2024-02-21T11:27:20;101861.78;;;10.61;76.61
71344;BME280;59146;43.850;25.948;2024-02-21T11:29:53;101858.13;;;10.65;76.13
71344;BME280;59146;43.850;25.948;2024-02-21T11:32:20;101766.72;;;9.98;76.59
71344;BME280;59146;43.850;25.948;2024-02-21T11:37:25;101829.16;;;10.71;75.91
71344;BME280;59146;43.850;25.948;2024-02-21T11:39:51;101808.19;;;10.51;75.06
71344;BME280;59146;43.850;25.948;2024-02-21T11:42:18;101813.22;;;10.33;76.53
71344;BME280;59146;43.850;25.948;2024-02-21T11:44:43;101826.69;;;10.68;75.79
71344;BME280;59146;43.850;25.948;2024-02-21T11:47:09;101789.19;;;10.47;75.39
71344;BME280;59146;43.850;25.948;2024-02-21T11:49:42;101796.66;;;10.56;75.01
71344;BME280;59146;43.850;25.948;2024-02-21T11:52:08;101838.94;;;10.66;75.29
71344;BME280;59146;43.850;25.948;2024-02-21T11:54:34;101819.69;;;10.47;75.62
71344;BME280;59146;43.850;25.948;2024-02-21T11:57:00;101842.91;;;10.76;74.99
71344;BME280;59146;43.850;25.948;2024-02-21T11:59:30;101795.84;;;10.54;75.48
71344;BME280;59146;43.850;25.948;2024-02-21T12:01:58;101791.06;;;10.44;75.68
71344;BME280;59146;43.850;25.948;2024-02-21T12:04:27;101838.56;;;10.31;76.13
71344;BME280;59146;43.850;25.948;2024-02-21T12:06:53;101834.03;;;10.36;75.97
71344;BME280;59146;43.850;25.948;2024-02-21T12:09:19;101758.19;;;10.16;74.57
71344;BME280;59146;43.850;25.948;2024-02-21T12:11:45;101771.88;;;10.45;73.07
71344;BME280;59146;43.850;25.948;2024-02-21T12:14:16;101770.66;;;10.53;72.11
71344;BME280;59146;43.850;25.948;2024-02-21T12:16:42;101744.34;;;10.14;73.14
71344;BME280;59146;43.850;25.948;2024-02-21T12:19:12;101774.22;;;10.29;73.83
71344;BME280;59146;43.850;25.948;2024-02-21T12:21:38;101799.75;;;10.66;73.01
71344;BME280;59146;43.850;25.948;2024-02-21T12:24:15;101765.66;;;10.69;72.25
71344;BME280;59146;43.850;25.948;2024-02-21T12:26:41;101804.03;;;10.88;72.11
71344;BME280;59146;43.850;25.948;2024-02-21T12:29:07;101802.81;;;10.97;71.71
71344;BME280;59146;43.850;25.948;2024-02-21T12:31:39;101785.47;;;10.94;71.25
71344;BME280;59146;43.850;25.948;2024-02-21T12:34:05;101801.91;;;11.18;70.64
71344;BME280;59146;43.850;25.948;2024-02-21T12:36:32;101746.97;;;10.78;70.17
71344;BME280;59146;43.850;25.948;2024-02-21T12:38:58;101805.81;;;10.88;71.58
71344;BME280;59146;43.850;25.948;2024-02-21T12:41:31;101798.78;;;11.10;70.38
71344;BME280;59146;43.850;25.948;2024-02-21T12:43:58;101777.31;;;11.22;69.36
71344;BME280;59146;43.850;25.948;2024-02-21T12:46:24;101725.28;;;10.76;69.47
71344;BME280;59146;43.850;25.948;2024-02-21T12:48:50;101800.13;;;11.18;69.91
71344;BME280;59146;43.850;25.948;2024-02-21T12:51:15;101731.22;;;10.79;70.61